sensor_id;sensor_type;location;lat;lon;timestamp;temperature;humidity
24412;DHT22;12544;46.760;15.942;2023-08-06T00:00:21;16.30;99.90
24412;DHT22;12544;46.760;15.942;2023-08-06T00:02:47;16.20;99.90
24412;DHT22;12544;46.760;15.942;2023-08-06T00:05:13;16.30;99.90
24412;DHT22;12544;46.760;15.942;2023-08-06T00:07:39;16.30;99.90
24412;DHT22;12544;46.760;15.942;2023-08-06T00:10:05;16.30;99.90
24412;DHT22;12544;46.760;15.942;2023-08-06T00:12:30;16.30;99.90
24412;DHT22;12544;46.760;15.942;2023-08-06T00:14:56;16.30;99.90
24412;DHT22;12544;46.760;15.942;2023-08-06T00:17:21;16.30;99.90
24412;DHT22;12544;46.760;15.942;2023-08-06T00:19:47;16.30;99.90
24412;DHT22;12544;46.760;15.942;2023-08-06T00:22:13;16.30;99.90
24412;DHT22;12544;46.760;15.942;2023-08-06T00:24:38;16.20;99.90
24412;DHT22;12544;46.760;15.942;2023-08-06T00:27:04;16.30;99.90
24412;DHT22;12544;46.760;15.942;2023-08-06T00:29:30;16.30;99.90
24412;DHT22;12544;46.760;15.942;2023-08-06T00:31:55;16.30;99.90
24412;DHT22;12544;46.760;15.942;2023-08-06T00:34:21;16.30;99.90
24412;DHT22;12544;46.760;15.942;2023-08-06T00:36:46;16.20;99.90
24412;DHT22;12544;46.760;15.942;2023-08-06T00:39:13;16.30;99.90
24412;DHT22;12544;46.760;15.942;2023-08-06T00:41:39;16.30;99.90
24412;DHT22;12544;46.760;15.942;2023-08-06T00:44:04;16.30;99.90
24412;DHT22;12544;46.760;15.942;2023-08-06T00:46:31;16.30;99.90
24412;DHT22;12544;46.760;15.942;2023-08-06T00:48:57;16.20;99.90
24412;DHT22;12544;46.760;15.942;2023-08-06T00:51:24;16.20;99.90
24412;DHT22;12544;46.760;15.942;2023-08-06T00:53:50;16.20;99.90
24412;DHT22;12544;46.760;15.942;2023-08-06T00:56:16;16.20;99.90
24412;DHT22;12544;46.760;15.942;2023-08-06T00:58:42;16.20;99.90
24412;DHT22;12544;46.760;15.942;2023-08-06T01:01:08;16.20;99.90
24412;DHT22;12544;46.760;15.942;2023-08-06T01:03:33;16.10;99.90
24412;DHT22;12544;46.760;15.942;2023-08-06T01:06:00;16.20;99.90
24412;DHT22;12544;46.760;15.942;2023-08-06T01:13:56;16.20;99.90
24412;DHT22;12544;46.760;15.942;2023-08-06T01:16:20;16.20;99.90
24412;DHT22;12544;46.760;15.942;2023-08-06T01:18:50;16.20;99.90
24412;DHT22;12544;46.760;15.942;2023-08-06T01:21:16;16.20;99.90
24412;DHT22;12544;46.760;15.942;2023-08-06T01:23:43;16.30;99.90
24412;DHT22;12544;46.760;15.942;2023-08-06T01:31:38;16.20;99.90
24412;DHT22;12544;46.760;15.942;2023-08-06T01:34:11;16.20;99.90
24412;DHT22;12544;46.760;15.942;2023-08-06T01:36:39;16.20;99.90
24412;DHT22;12544;46.760;15.942;2023-08-06T01:39:05;16.20;99.90
24412;DHT22;12544;46.760;15.942;2023-08-06T01:41:31;16.20;99.90
24412;DHT22;12544;46.760;15.942;2023-08-06T01:43:56;16.20;99.90
24412;DHT22;12544;46.760;15.942;2023-08-06T01:46:22;16.20;99.90
24412;DHT22;12544;46.760;15.942;2023-08-06T01:48:48;16.20;99.90
24412;DHT22;12544;46.760;15.942;2023-08-06T01:51:13;16.20;99.90
24412;DHT22;12544;46.760;15.942;2023-08-06T01:53:39;16.20;99.90
24412;DHT22;12544;46.760;15.942;2023-08-06T01:56:11;16.20;99.90
24412;DHT22;12544;46.760;15.942;2023-08-06T01:58:37;16.10;99.90
24412;DHT22;12544;46.760;15.942;2023-08-06T02:01:02;16.10;99.90
24412;DHT22;12544;46.760;15.942;2023-08-06T02:03:28;16.10;99.90
24412;DHT22;12544;46.760;15.942;2023-08-06T02:05:54;16.00;99.90
24412;DHT22;12544;46.760;15.942;2023-08-06T02:08:19;16.00;99.90
24412;DHT22;12544;46.760;15.942;2023-08-06T02:10:45;16.00;99.90
24412;DHT22;12544;46.760;15.942;2023-08-06T02:13:11;16.00;99.90
24412;DHT22;12544;46.760;15.942;2023-08-06T02:15:42;16.00;99.90
24412;DHT22;12544;46.760;15.942;2023-08-06T02:18:08;16.10;99.90
24412;DHT22;12544;46.760;15.942;2023-08-06T02:20:34;16.10;99.90
24412;DHT22;12544;46.760;15.942;2023-08-06T02:23:00;16.10;99.90
24412;DHT22;12544;46.760;15.942;2023-08-06T02:25:25;16.10;99.90
24412;DHT22;12544;46.760;15.942;2023-08-06T02:27:51;16.10;99.90
24412;DHT22;12544;46.760;15.942;2023-08-06T02:30:16;16.10;99.90
24412;DHT22;12544;46.760;15.942;2023-08-06T02:32:42;16.10;99.90
24412;DHT22;12544;46.760;15.942;2023-08-06T02:35:08;16.10;99.90
24412;DHT22;12544;46.760;15.942;2023-08-06T02:37:34;16.10;99.90
24412;DHT22;12544;46.760;15.942;2023-08-06T02:40:00;16.10;99.90
24412;DHT22;12544;46.760;15.942;2023-08-06T02:42:25;16.10;99.90
24412;DHT22;12544;46.760;15.942;2023-08-06T02:44:52;16.10;99.90
24412;DHT22;12544;46.760;15.942;2023-08-06T02:47:20;16.00;99.90
24412;DHT22;12544;46.760;15.942;2023-08-06T02:49:46;16.00;99.90
24412;DHT22;12544;46.760;15.942;2023-08-06T02:52:12;16.00;99.90
24412;DHT22;12544;46.760;15.942;2023-08-06T02:54:38;16.00;99.90
24412;DHT22;12544;46.760;15.942;2023-08-06T02:57:04;15.90;99.90
24412;DHT22;12544;46.760;15.942;2023-08-06T02:59:30;15.90;99.90
24412;DHT22;12544;46.760;15.942;2023-08-06T03:01:56;15.90;99.90
24412;DHT22;12544;46.760;15.942;2023-08-06T03:04:21;15.90;99.90
24412;DHT22;12544;46.760;15.942;2023-08-06T03:06:49;15.90;99.90
24412;DHT22;12544;46.760;15.942;2023-08-06T03:09:17;15.90;99.90
24412;DHT22;12544;46.760;15.942;2023-08-06T03:11:43;15.90;99.90
24412;DHT22;12544;46.760;15.942;2023-08-06T03:14:09;15.90;99.90
24412;DHT22;12544;46.760;15.942;2023-08-06T03:16:34;16.00;99.90
24412;DHT22;12544;46.760;15.942;2023-08-06T03:19:00;16.00;99.90
24412;DHT22;12544;46.760;15.942;2023-08-06T03:21:26;16.00;99.90
24412;DHT22;12544;46.760;15.942;2023-08-06T03:23:52;16.00;99.90
24412;DHT22;12544;46.760;15.942;2023-08-06T03:26:18;16.00;99.90
24412;DHT22;12544;46.760;15.942;2023-08-06T03:28:43;16.10;99.90
24412;DHT22;12544;46.760;15.942;2023-08-06T03:31:09;16.10;99.90
24412;DHT22;12544;46.760;15.942;2023-08-06T03:33:34;16.10;99.90
24412;DHT22;12544;46.760;15.942;2023-08-06T03:36:00;16.10;99.90
24412;DHT22;12544;46.760;15.942;2023-08-06T03:38:26;16.10;99.90
24412;DHT22;12544;46.760;15.942;2023-08-06T03:40:51;16.10;99.90
24412;DHT22;12544;46.760;15.942;2023-08-06T03:43:17;16.20;99.90
24412;DHT22;12544;46.760;15.942;2023-08-06T03:45:43;16.10;99.90
24412;DHT22;12544;46.760;15.942;2023-08-06T03:48:08;16.10;99.90
24412;DHT22;12544;46.760;15.942;2023-08-06T03:50:35;16.10;99.90
24412;DHT22;12544;46.760;15.942;2023-08-06T03:53:01;16.10;99.90
24412;DHT22;12544;46.760;15.942;2023-08-06T03:55:27;16.10;99.90
24412;DHT22;12544;46.760;15.942;2023-08-06T03:57:52;16.00;99.90
24412;DHT22;12544;46.760;15.942;2023-08-06T04:00:18;16.00;99.90
24412;DHT22;12544;46.760;15.942;2023-08-06T04:02:44;16.10;99.90
24412;DHT22;12544;46.760;15.942;2023-08-06T04:05:09;16.00;99.90
24412;DHT22;12544;46.760;15.942;2023-08-06T04:07:35;16.10;99.90
24412;DHT22;12544;46.760;15.942;2023-08-06T04:10:03;16.00;99.90
24412;DHT22;12544;46.760;15.942;2023-08-06T04:12:29;16.10;99.90
24412;DHT22;12544;46.760;15.942;2023-08-06T04:14:57;16.10;99.90
24412;DHT22;12544;46.760;15.942;2023-08-06T04:17:23;16.10;99.90
24412;DHT22;12544;46.760;15.942;2023-08-06T04:19:51;16.10;99.90
24412;DHT22;12544;46.760;15.942;2023-08-06T04:22:18;16.10;99.90
24412;DHT22;12544;46.760;15.942;2023-08-06T04:24:44;16.10;99.90
24412;DHT22;12544;46.760;15.942;2023-08-06T04:27:10;16.20;99.90
24412;DHT22;12544;46.760;15.942;2023-08-06T04:29:36;16.20;99.90
24412;DHT22;12544;46.760;15.942;2023-08-06T04:32:05;16.10;99.90
24412;DHT22;12544;46.760;15.942;2023-08-06T04:34:30;16.20;99.90
24412;DHT22;12544;46.760;15.942;2023-08-06T04:36:56;16.20;99.90
24412;DHT22;12544;46.760;15.942;2023-08-06T04:39:21;16.20;99.90
24412;DHT22;12544;46.760;15.942;2023-08-06T04:41:47;16.10;99.90
24412;DHT22;12544;46.760;15.942;2023-08-06T04:44:13;16.10;99.90
24412;DHT22;12544;46.760;15.942;2023-08-06T04:46:38;16.10;99.90
24412;DHT22;12544;46.760;15.942;2023-08-06T04:49:04;16.10;99.90
24412;DHT22;12544;46.760;15.942;2023-08-06T04:51:29;16.10;99.90
24412;DHT22;12544;46.760;15.942;2023-08-06T04:53:56;16.00;99.90
24412;DHT22;12544;46.760;15.942;2023-08-06T04:56:22;16.00;99.90
24412;DHT22;12544;46.760;15.942;2023-08-06T04:58:48;16.00;99.90
24412;DHT22;12544;46.760;15.942;2023-08-06T05:01:13;16.00;99.90
24412;DHT22;12544;46.760;15.942;2023-08-06T05:03:39;16.10;99.90
24412;DHT22;12544;46.760;15.942;2023-08-06T05:06:05;16.10;99.90
24412;DHT22;12544;46.760;15.942;2023-08-06T05:08:30;16.10;99.90
24412;DHT22;12544;46.760;15.942;2023-08-06T05:10:56;16.10;99.90
24412;DHT22;12544;46.760;15.942;2023-08-06T05:13:21;16.10;99.90
24412;DHT22;12544;46.760;15.942;2023-08-06T05:15:47;16.20;99.90
24412;DHT22;12544;46.760;15.942;2023-08-06T05:18:12;16.20;99.90
24412;DHT22;12544;46.760;15.942;2023-08-06T05:20:40;16.20;99.90
24412;DHT22;12544;46.760;15.942;2023-08-06T05:23:07;16.20;99.90
24412;DHT22;12544;46.760;15.942;2023-08-06T05:25:35;16.30;99.90
24412;DHT22;12544;46.760;15.942;2023-08-06T05:28:01;16.30;99.90
24412;DHT22;12544;46.760;15.942;2023-08-06T05:30:27;16.30;99.90
24412;DHT22;12544;46.760;15.942;2023-08-06T05:32:53;16.40;99.90
24412;DHT22;12544;46.760;15.942;2023-08-06T05:35:18;16.50;99.90
24412;DHT22;12544;46.760;15.942;2023-08-06T05:37:44;16.40;99.90
24412;DHT22;12544;46.760;15.942;2023-08-06T05:40:10;16.40;99.90
24412;DHT22;12544;46.760;15.942;2023-08-06T05:42:35;16.50;99.90
24412;DHT22;12544;46.760;15.942;2023-08-06T05:45:01;16.50;99.90
24412;DHT22;12544;46.760;15.942;2023-08-06T05:47:26;16.50;99.90
24412;DHT22;12544;46.760;15.942;2023-08-06T05:49:52;16.50;99.90
24412;DHT22;12544;46.760;15.942;2023-08-06T05:52:17;16.50;99.90
24412;DHT22;12544;46.760;15.942;2023-08-06T05:54:43;16.50;99.90
24412;DHT22;12544;46.760;15.942;2023-08-06T05:57:09;16.50;99.90
24412;DHT22;12544;46.760;15.942;2023-08-06T05:59:34;16.50;99.90
24412;DHT22;12544;46.760;15.942;2023-08-06T06:02:00;16.50;99.90
24412;DHT22;12544;46.760;15.942;2023-08-06T06:04:25;16.50;99.90
24412;DHT22;12544;46.760;15.942;2023-08-06T06:06:51;16.50;99.90
24412;DHT22;12544;46.760;15.942;2023-08-06T06:09:17;16.50;99.90
24412;DHT22;12544;46.760;15.942;2023-08-06T06:11:42;16.50;99.90
24412;DHT22;12544;46.760;15.942;2023-08-06T06:14:08;16.50;99.90
24412;DHT22;12544;46.760;15.942;2023-08-06T06:16:34;16.60;99.90
24412;DHT22;12544;46.760;15.942;2023-08-06T06:18:59;16.60;99.90
24412;DHT22;12544;46.760;15.942;2023-08-06T06:21:25;16.60;99.90
24412;DHT22;12544;46.760;15.942;2023-08-06T06:23:51;16.60;99.90
24412;DHT22;12544;46.760;15.942;2023-08-06T06:26:19;16.60;99.90
24412;DHT22;12544;46.760;15.942;2023-08-06T06:28:45;16.70;99.90
24412;DHT22;12544;46.760;15.942;2023-08-06T06:31:10;16.60;99.90
24412;DHT22;12544;46.760;15.942;2023-08-06T06:33:36;16.60;99.90
24412;DHT22;12544;46.760;15.942;2023-08-06T06:36:02;16.70;99.90
24412;DHT22;12544;46.760;15.942;2023-08-06T06:38:29;16.60;99.90
24412;DHT22;12544;46.760;15.942;2023-08-06T06:40:58;16.50;99.90
24412;DHT22;12544;46.760;15.942;2023-08-06T06:43:24;16.50;99.90
24412;DHT22;12544;46.760;15.942;2023-08-06T06:45:57;16.60;99.90
24412;DHT22;12544;46.760;15.942;2023-08-06T06:48:26;16.60;99.90
24412;DHT22;12544;46.760;15.942;2023-08-06T06:50:52;16.60;99.90
24412;DHT22;12544;46.760;15.942;2023-08-06T06:53:18;16.50;99.90
24412;DHT22;12544;46.760;15.942;2023-08-06T06:55:43;16.50;99.90
24412;DHT22;12544;46.760;15.942;2023-08-06T06:58:09;16.60;99.90
24412;DHT22;12544;46.760;15.942;2023-08-06T07:00:38;16.50;99.90
24412;DHT22;12544;46.760;15.942;2023-08-06T07:03:04;16.50;99.90
24412;DHT22;12544;46.760;15.942;2023-08-06T07:05:29;16.50;99.90
24412;DHT22;12544;46.760;15.942;2023-08-06T07:07:55;16.50;99.90
24412;DHT22;12544;46.760;15.942;2023-08-06T07:10:21;16.50;99.90
24412;DHT22;12544;46.760;15.942;2023-08-06T07:12:46;16.60;99.90
24412;DHT22;12544;46.760;15.942;2023-08-06T07:15:12;16.60;99.90
24412;DHT22;12544;46.760;15.942;2023-08-06T07:17:37;16.60;99.90
24412;DHT22;12544;46.760;15.942;2023-08-06T07:20:04;16.60;99.90
24412;DHT22;12544;46.760;15.942;2023-08-06T07:22:29;16.70;99.90
24412;DHT22;12544;46.760;15.942;2023-08-06T07:24:55;16.70;99.90
24412;DHT22;12544;46.760;15.942;2023-08-06T07:27:21;16.70;99.90
24412;DHT22;12544;46.760;15.942;2023-08-06T07:29:46;16.70;99.90
24412;DHT22;12544;46.760;15.942;2023-08-06T07:32:13;16.70;99.90
24412;DHT22;12544;46.760;15.942;2023-08-06T07:34:40;16.70;99.90
24412;DHT22;12544;46.760;15.942;2023-08-06T07:37:05;16.70;99.90
24412;DHT22;12544;46.760;15.942;2023-08-06T07:39:31;16.70;99.90
24412;DHT22;12544;46.760;15.942;2023-08-06T07:41:57;16.80;99.90
24412;DHT22;12544;46.760;15.942;2023-08-06T07:44:22;16.70;99.90
24412;DHT22;12544;46.760;15.942;2023-08-06T07:46:49;16.80;99.90
24412;DHT22;12544;46.760;15.942;2023-08-06T07:49:14;16.90;99.90
24412;DHT22;12544;46.760;15.942;2023-08-06T07:51:40;16.90;99.90
24412;DHT22;12544;46.760;15.942;2023-08-06T07:54:06;16.90;99.90
24412;DHT22;12544;46.760;15.942;2023-08-06T07:56:32;17.00;99.90
24412;DHT22;12544;46.760;15.942;2023-08-06T07:58:57;17.00;99.90
24412;DHT22;12544;46.760;15.942;2023-08-06T08:01:23;17.00;99.90
24412;DHT22;12544;46.760;15.942;2023-08-06T08:03:49;17.00;99.90
24412;DHT22;12544;46.760;15.942;2023-08-06T08:06:14;17.00;99.90
24412;DHT22;12544;46.760;15.942;2023-08-06T08:08:40;17.00;99.90
24412;DHT22;12544;46.760;15.942;2023-08-06T08:11:06;17.00;99.90
24412;DHT22;12544;46.760;15.942;2023-08-06T08:13:33;17.00;99.90
24412;DHT22;12544;46.760;15.942;2023-08-06T08:16:00;17.10;99.90
24412;DHT22;12544;46.760;15.942;2023-08-06T08:18:26;17.10;99.90
24412;DHT22;12544;46.760;15.942;2023-08-06T08:20:51;17.10;99.90
24412;DHT22;12544;46.760;15.942;2023-08-06T08:23:17;17.10;99.90
24412;DHT22;12544;46.760;15.942;2023-08-06T08:25:43;17.20;99.90
24412;DHT22;12544;46.760;15.942;2023-08-06T08:28:08;17.20;99.90
24412;DHT22;12544;46.760;15.942;2023-08-06T08:30:34;17.20;99.90
24412;DHT22;12544;46.760;15.942;2023-08-06T08:33:00;17.20;99.90
24412;DHT22;12544;46.760;15.942;2023-08-06T08:35:25;17.20;99.90
24412;DHT22;12544;46.760;15.942;2023-08-06T08:37:51;17.20;99.90
24412;DHT22;12544;46.760;15.942;2023-08-06T08:40:17;17.20;99.90
24412;DHT22;12544;46.760;15.942;2023-08-06T08:42:43;17.20;99.90
24412;DHT22;12544;46.760;15.942;2023-08-06T08:45:15;17.20;99.90
24412;DHT22;12544;46.760;15.942;2023-08-06T08:47:43;17.20;99.90
24412;DHT22;12544;46.760;15.942;2023-08-06T08:50:09;17.30;99.90
24412;DHT22;12544;46.760;15.942;2023-08-06T08:52:38;17.30;99.90
24412;DHT22;12544;46.760;15.942;2023-08-06T08:55:04;17.20;99.90
24412;DHT22;12544;46.760;15.942;2023-08-06T08:57:30;17.20;99.90
24412;DHT22;12544;46.760;15.942;2023-08-06T08:59:56;17.30;99.90
24412;DHT22;12544;46.760;15.942;2023-08-06T09:02:22;17.30;99.90
24412;DHT22;12544;46.760;15.942;2023-08-06T09:04:50;17.30;99.90
24412;DHT22;12544;46.760;15.942;2023-08-06T09:07:19;17.30;99.90
24412;DHT22;12544;46.760;15.942;2023-08-06T09:09:48;17.30;99.90
24412;DHT22;12544;46.760;15.942;2023-08-06T09:12:16;17.30;99.90
24412;DHT22;12544;46.760;15.942;2023-08-06T09:14:42;17.40;99.90
24412;DHT22;12544;46.760;15.942;2023-08-06T09:17:09;17.30;99.90
24412;DHT22;12544;46.760;15.942;2023-08-06T09:19:36;17.30;99.90
24412;DHT22;12544;46.760;15.942;2023-08-06T09:22:02;17.30;99.90
24412;DHT22;12544;46.760;15.942;2023-08-06T09:24:28;17.40;99.90
24412;DHT22;12544;46.760;15.942;2023-08-06T09:26:54;17.30;99.90
24412;DHT22;12544;46.760;15.942;2023-08-06T09:29:20;17.30;99.90
24412;DHT22;12544;46.760;15.942;2023-08-06T09:31:50;17.40;99.90
24412;DHT22;12544;46.760;15.942;2023-08-06T09:34:19;17.50;99.90
24412;DHT22;12544;46.760;15.942;2023-08-06T09:36:48;17.50;99.90
24412;DHT22;12544;46.760;15.942;2023-08-06T09:39:18;17.50;99.90
24412;DHT22;12544;46.760;15.942;2023-08-06T09:41:45;17.60;99.90
24412;DHT22;12544;46.760;15.942;2023-08-06T09:44:24;17.60;99.90
24412;DHT22;12544;46.760;15.942;2023-08-06T09:46:55;17.60;99.90
24412;DHT22;12544;46.760;15.942;2023-08-06T09:49:42;17.60;99.90
24412;DHT22;12544;46.760;15.942;2023-08-06T09:52:12;17.70;99.90
24412;DHT22;12544;46.760;15.942;2023-08-06T09:54:38;17.70;99.90
24412;DHT22;12544;46.760;15.942;2023-08-06T09:57:05;17.70;99.90
24412;DHT22;12544;46.760;15.942;2023-08-06T09:59:32;17.80;99.90
24412;DHT22;12544;46.760;15.942;2023-08-06T10:01:58;17.80;99.90
24412;DHT22;12544;46.760;15.942;2023-08-06T10:04:24;17.90;99.90
24412;DHT22;12544;46.760;15.942;2023-08-06T10:06:50;17.90;99.90
24412;DHT22;12544;46.760;15.942;2023-08-06T10:09:16;17.90;99.90
24412;DHT22;12544;46.760;15.942;2023-08-06T10:11:50;17.90;99.90
24412;DHT22;12544;46.760;15.942;2023-08-06T10:14:29;17.90;99.90
24412;DHT22;12544;46.760;15.942;2023-08-06T10:16:57;17.80;99.90
24412;DHT22;12544;46.760;15.942;2023-08-06T10:19:25;17.80;99.90
24412;DHT22;12544;46.760;15.942;2023-08-06T10:22:10;17.80;99.90
24412;DHT22;12544;46.760;15.942;2023-08-06T10:24:55;17.80;99.90
24412;DHT22;12544;46.760;15.942;2023-08-06T10:27:22;17.70;99.90
24412;DHT22;12544;46.760;15.942;2023-08-06T10:29:48;17.70;99.90
24412;DHT22;12544;46.760;15.942;2023-08-06T10:32:17;17.70;99.90
24412;DHT22;12544;46.760;15.942;2023-08-06T10:34:59;17.60;99.90
24412;DHT22;12544;46.760;15.942;2023-08-06T10:37:36;17.60;99.90
24412;DHT22;12544;46.760;15.942;2023-08-06T10:40:02;17.70;99.90
24412;DHT22;12544;46.760;15.942;2023-08-06T10:42:29;17.70;99.90
24412;DHT22;12544;46.760;15.942;2023-08-06T10:45:17;17.80;99.90
24412;DHT22;12544;46.760;15.942;2023-08-06T10:47:44;17.80;99.90
24412;DHT22;12544;46.760;15.942;2023-08-06T10:50:15;17.90;99.90
24412;DHT22;12544;46.760;15.942;2023-08-06T10:52:44;17.90;99.90
24412;DHT22;12544;46.760;15.942;2023-08-06T10:55:10;18.00;99.90
24412;DHT22;12544;46.760;15.942;2023-08-06T10:57:36;18.00;99.90
24412;DHT22;12544;46.760;15.942;2023-08-06T11:00:04;18.10;99.90
24412;DHT22;12544;46.760;15.942;2023-08-06T11:02:34;18.10;99.90
24412;DHT22;12544;46.760;15.942;2023-08-06T11:05:08;18.10;99.90
24412;DHT22;12544;46.760;15.942;2023-08-06T11:07:35;18.30;99.90
24412;DHT22;12544;46.760;15.942;2023-08-06T11:10:02;18.40;99.90
24412;DHT22;12544;46.760;15.942;2023-08-06T11:12:28;18.60;99.90
24412;DHT22;12544;46.760;15.942;2023-08-06T11:14:53;18.60;99.90
24412;DHT22;12544;46.760;15.942;2023-08-06T11:17:19;18.80;99.90
24412;DHT22;12544;46.760;15.942;2023-08-06T11:19:45;18.90;99.90
24412;DHT22;12544;46.760;15.942;2023-08-06T11:22:10;19.00;99.90
24412;DHT22;12544;46.760;15.942;2023-08-06T11:24:37;18.90;99.90
24412;DHT22;12544;46.760;15.942;2023-08-06T11:27:13;18.90;99.90
24412;DHT22;12544;46.760;15.942;2023-08-06T11:29:40;19.00;99.90
24412;DHT22;12544;46.760;15.942;2023-08-06T11:32:07;19.10;99.90
24412;DHT22;12544;46.760;15.942;2023-08-06T11:34:33;19.20;99.90
24412;DHT22;12544;46.760;15.942;2023-08-06T11:36:59;19.30;99.90
24412;DHT22;12544;46.760;15.942;2023-08-06T11:39:25;19.40;99.90
24412;DHT22;12544;46.760;15.942;2023-08-06T11:41:51;19.50;99.90
24412;DHT22;12544;46.760;15.942;2023-08-06T11:44:19;19.50;99.90
24412;DHT22;12544;46.760;15.942;2023-08-06T11:46:55;19.60;99.90
24412;DHT22;12544;46.760;15.942;2023-08-06T11:49:48;19.70;99.90
24412;DHT22;12544;46.760;15.942;2023-08-06T11:52:21;19.60;99.90
24412;DHT22;12544;46.760;15.942;2023-08-06T11:55:03;19.60;99.90
24412;DHT22;12544;46.760;15.942;2023-08-06T11:57:32;19.70;99.90
24412;DHT22;12544;46.760;15.942;2023-08-06T12:00:04;19.80;99.90
24412;DHT22;12544;46.760;15.942;2023-08-06T12:02:31;19.80;99.90
24412;DHT22;12544;46.760;15.942;2023-08-06T12:05:15;19.80;99.90
24412;DHT22;12544;46.760;15.942;2023-08-06T12:07:46;20.00;99.90
24412;DHT22;12544;46.760;15.942;2023-08-06T12:10:13;20.20;99.90
24412;DHT22;12544;46.760;15.942;2023-08-06T12:12:39;20.50;99.90
24412;DHT22;12544;46.760;15.942;2023-08-06T12:15:06;20.60;99.90
24412;DHT22;12544;46.760;15.942;2023-08-06T12:17:32;20.70;99.90
24412;DHT22;12544;46.760;15.942;2023-08-06T12:20:01;20.80;99.90
24412;DHT22;12544;46.760;15.942;2023-08-06T12:22:27;20.80;99.90
24412;DHT22;12544;46.760;15.942;2023-08-06T12:24:53;20.70;99.90
24412;DHT22;12544;46.760;15.942;2023-08-06T12:27:19;20.70;99.90
24412;DHT22;12544;46.760;15.942;2023-08-06T12:29:46;20.70;99.90
24412;DHT22;12544;46.760;15.942;2023-08-06T12:32:13;20.80;99.90
24412;DHT22;12544;46.760;15.942;2023-08-06T12:34:40;20.90;99.90
24412;DHT22;12544;46.760;15.942;2023-08-06T12:37:06;21.00;99.90
24412;DHT22;12544;46.760;15.942;2023-08-06T12:39:36;21.20;99.90
24412;DHT22;12544;46.760;15.942;2023-08-06T12:42:04;21.40;99.90
24412;DHT22;12544;46.760;15.942;2023-08-06T12:44:31;21.60;99.90
24412;DHT22;12544;46.760;15.942;2023-08-06T12:46:57;22.00;99.90
24412;DHT22;12544;46.760;15.942;2023-08-06T12:49:23;22.20;99.90
24412;DHT22;12544;46.760;15.942;2023-08-06T12:51:50;22.60;99.90
24412;DHT22;12544;46.760;15.942;2023-08-06T12:54:20;22.80;99.90
24412;DHT22;12544;46.760;15.942;2023-08-06T12:56:48;23.00;99.90
24412;DHT22;12544;46.760;15.942;2023-08-06T12:59:16;23.20;99.90
24412;DHT22;12544;46.760;15.942;2023-08-06T13:01:42;23.30;99.90
24412;DHT22;12544;46.760;15.942;2023-08-06T13:04:08;23.30;99.90
24412;DHT22;12544;46.760;15.942;2023-08-06T13:06:34;23.40;99.90
24412;DHT22;12544;46.760;15.942;2023-08-06T13:09:08;23.50;99.90
24412;DHT22;12544;46.760;15.942;2023-08-06T13:11:35;23.70;99.90
24412;DHT22;12544;46.760;15.942;2023-08-06T13:14:11;23.80;99.90
24412;DHT22;12544;46.760;15.942;2023-08-06T13:16:40;24.00;99.90
24412;DHT22;12544;46.760;15.942;2023-08-06T13:19:07;24.10;99.90
24412;DHT22;12544;46.760;15.942;2023-08-06T13:24:05;24.40;99.90
24412;DHT22;12544;46.760;15.942;2023-08-06T13:26:31;24.20;99.90
24412;DHT22;12544;46.760;15.942;2023-08-06T13:28:58;24.20;99.90
24412;DHT22;12544;46.760;15.942;2023-08-06T13:31:23;24.20;99.90
24412;DHT22;12544;46.760;15.942;2023-08-06T13:33:49;24.40;99.90
24412;DHT22;12544;46.760;15.942;2023-08-06T13:36:16;24.60;99.90
24412;DHT22;12544;46.760;15.942;2023-08-06T13:38:42;24.70;99.90
24412;DHT22;12544;46.760;15.942;2023-08-06T13:41:07;24.70;99.90
24412;DHT22;12544;46.760;15.942;2023-08-06T13:43:33;24.90;99.90
24412;DHT22;12544;46.760;15.942;2023-08-06T13:45:59;25.00;99.90
24412;DHT22;12544;46.760;15.942;2023-08-06T13:48:24;25.00;99.90
24412;DHT22;12544;46.760;15.942;2023-08-06T13:50:50;24.70;99.90
24412;DHT22;12544;46.760;15.942;2023-08-06T13:53:15;24.40;99.90
24412;DHT22;12544;46.760;15.942;2023-08-06T13:55:41;24.00;99.90
24412;DHT22;12544;46.760;15.942;2023-08-06T13:58:07;23.50;99.90
24412;DHT22;12544;46.760;15.942;2023-08-06T14:00:32;23.10;99.90
24412;DHT22;12544;46.760;15.942;2023-08-06T14:02:58;22.70;99.90
24412;DHT22;12544;46.760;15.942;2023-08-06T14:05:24;22.40;99.90
24412;DHT22;12544;46.760;15.942;2023-08-06T14:07:50;22.30;99.90
24412;DHT22;12544;46.760;15.942;2023-08-06T14:10:15;22.10;99.90
24412;DHT22;12544;46.760;15.942;2023-08-06T14:12:41;21.90;99.90
24412;DHT22;12544;46.760;15.942;2023-08-06T14:15:07;21.90;99.90
24412;DHT22;12544;46.760;15.942;2023-08-06T14:17:33;21.80;99.90
24412;DHT22;12544;46.760;15.942;2023-08-06T14:19:58;21.70;99.90
24412;DHT22;12544;46.760;15.942;2023-08-06T14:22:31;21.60;99.90
24412;DHT22;12544;46.760;15.942;2023-08-06T14:25:00;21.60;99.90
24412;DHT22;12544;46.760;15.942;2023-08-06T14:27:25;21.60;99.90
24412;DHT22;12544;46.760;15.942;2023-08-06T14:29:55;21.50;99.90
24412;DHT22;12544;46.760;15.942;2023-08-06T14:32:24;21.40;99.90
24412;DHT22;12544;46.760;15.942;2023-08-06T14:34:57;21.40;99.90
24412;DHT22;12544;46.760;15.942;2023-08-06T14:37:24;21.40;99.90
24412;DHT22;12544;46.760;15.942;2023-08-06T14:39:51;21.40;99.90
24412;DHT22;12544;46.760;15.942;2023-08-06T14:42:39;21.30;99.90
24412;DHT22;12544;46.760;15.942;2023-08-06T14:45:19;21.30;99.90
24412;DHT22;12544;46.760;15.942;2023-08-06T14:48:02;21.30;99.90
24412;DHT22;12544;46.760;15.942;2023-08-06T14:50:27;21.30;99.90
24412;DHT22;12544;46.760;15.942;2023-08-06T14:53:03;21.20;99.90
24412;DHT22;12544;46.760;15.942;2023-08-06T14:55:29;21.10;99.90
24412;DHT22;12544;46.760;15.942;2023-08-06T14:58:05;21.10;99.90
24412;DHT22;12544;46.760;15.942;2023-08-06T15:00:30;21.00;99.90
24412;DHT22;12544;46.760;15.942;2023-08-06T15:02:56;20.90;99.90
24412;DHT22;12544;46.760;15.942;2023-08-06T15:05:21;20.90;99.90
24412;DHT22;12544;46.760;15.942;2023-08-06T15:07:47;20.90;99.90
24412;DHT22;12544;46.760;15.942;2023-08-06T15:10:14;20.90;99.90
24412;DHT22;12544;46.760;15.942;2023-08-06T15:12:40;20.90;99.90
24412;DHT22;12544;46.760;15.942;2023-08-06T15:15:07;20.80;99.90
24412;DHT22;12544;46.760;15.942;2023-08-06T15:17:32;20.80;99.90
24412;DHT22;12544;46.760;15.942;2023-08-06T15:20:07;21.00;99.90
24412;DHT22;12544;46.760;15.942;2023-08-06T15:22:33;21.10;99.90
24412;DHT22;12544;46.760;15.942;2023-08-06T15:25:02;21.10;99.90
24412;DHT22;12544;46.760;15.942;2023-08-06T15:27:29;21.20;99.90